createdAt,value
2023-05-05T00:00:56.901Z,47.26
2023-05-05T00:01:57.045Z,46.86
2023-05-05T00:02:56.920Z,45.43
2023-05-05T00:03:56.979Z,46.24
2023-05-05T00:04:56.835Z,50.62
2023-05-05T00:05:56.856Z,46.75
2023-05-05T00:06:57.088Z,50.92
2023-05-05T00:07:56.841Z,46.71
2023-05-05T00:08:56.888Z,46.42
2023-05-05T00:09:56.820Z,45.40
2023-05-05T00:10:56.828Z,46.81
2023-05-05T00:11:56.831Z,45.42
2023-05-05T00:12:56.878Z,46.64
2023-05-05T00:13:56.796Z,45.46
2023-05-05T00:14:56.784Z,51.79
2023-05-05T00:15:56.826Z,55.04
2023-05-05T00:16:56.899Z,52.19
2023-05-05T00:17:56.793Z,49.04
2023-05-05T00:18:56.758Z,47.34
2023-05-05T00:19:56.736Z,56.67
2023-05-05T00:20:56.731Z,45.58
2023-05-05T00:21:56.732Z,48.46
2023-05-05T00:22:56.714Z,53.00
2023-05-05T00:23:56.709Z,49.36
2023-05-05T00:24:56.702Z,46.41
2023-05-05T00:25:56.698Z,50.83
2023-05-05T00:26:56.690Z,46.92
2023-05-05T00:27:56.674Z,47.71
2023-05-05T00:28:56.692Z,51.38
2023-05-05T00:29:56.661Z,52.65
2023-05-05T00:30:56.697Z,45.90
2023-05-05T00:31:56.662Z,51.58
2023-05-05T00:32:56.663Z,52.85
2023-05-05T00:33:56.694Z,51.01
2023-05-05T00:34:56.651Z,49.69
2023-05-05T00:35:56.652Z,45.89
2023-05-05T00:36:56.606Z,46.75
2023-05-05T00:37:56.600Z,50.39
2023-05-05T00:38:56.594Z,45.67
2023-05-05T00:39:56.575Z,45.72
2023-05-05T00:40:56.582Z,45.43
2023-05-05T00:41:56.562Z,56.21
2023-05-05T00:42:56.665Z,45.36
2023-05-05T00:43:56.591Z,50.35
2023-05-05T00:44:57.365Z,47.29
2023-05-05T00:45:56.577Z,47.52
2023-05-05T00:46:56.527Z,50.97
2023-05-05T00:47:56.594Z,56.96
2023-05-05T00:48:56.567Z,58.60
2023-05-05T00:49:56.545Z,47.68
2023-05-05T00:50:56.504Z,53.78
2023-05-05T00:51:56.489Z,49.00
2023-05-05T00:52:56.501Z,57.77
2023-05-05T00:53:56.512Z,51.26
2023-05-05T00:54:56.493Z,51.81
2023-05-05T00:55:56.534Z,55.15
2023-05-05T00:56:56.502Z,47.88
2023-05-05T00:57:56.483Z,61.22
2023-05-05T00:58:56.469Z,48.55
2023-05-05T01:00:28.399Z,55.23
2023-05-05T01:00:56.477Z,47.91
2023-05-05T01:02:29.988Z,55.05
2023-05-05T01:02:56.454Z,50.04
2023-05-05T01:04:28.938Z,53.60
2023-05-05T01:04:56.394Z,52.46
2023-05-05T01:06:29.441Z,52.08
2023-05-05T01:07:28.358Z,46.37
2023-05-05T01:07:57.065Z,46.81
2023-05-05T01:08:56.370Z,46.54
2023-05-05T01:10:29.979Z,50.09
2023-05-05T01:10:56.368Z,46.32
2023-05-05T01:12:29.811Z,49.55
2023-05-05T01:12:56.420Z,46.59
2023-05-05T01:13:56.503Z,46.57
2023-05-05T01:14:56.348Z,52.05
2023-05-05T01:15:56.343Z,46.06
2023-05-05T01:16:56.328Z,50.35
2023-05-05T01:17:56.405Z,54.49
2023-05-05T01:18:56.384Z,51.20
2023-05-05T01:19:56.339Z,46.98
2023-05-05T01:20:57.176Z,51.95
2023-05-05T01:21:56.279Z,49.72
2023-05-05T01:22:56.295Z,46.72
2023-05-05T01:23:56.279Z,46.35
2023-05-05T01:24:57.099Z,46.36
2023-05-05T01:25:56.253Z,47.47
2023-05-05T01:26:56.283Z,48.65
2023-05-05T01:27:56.248Z,56.17
2023-05-05T01:28:56.305Z,47.34
2023-05-05T01:29:56.248Z,52.11
2023-05-05T01:31:29.062Z,51.92
2023-05-05T01:31:56.393Z,56.24
2023-05-05T01:32:56.211Z,56.19
2023-05-05T01:33:56.179Z,46.85
2023-05-05T01:34:56.134Z,52.34
2023-05-05T01:35:56.160Z,50.78
2023-05-05T01:36:56.155Z,45.74
2023-05-05T01:37:56.155Z,45.37
2023-05-05T01:38:56.163Z,52.08
2023-05-05T01:39:56.150Z,45.25
2023-05-05T01:40:56.101Z,53.53
2023-05-05T01:41:56.122Z,45.63
2023-05-05T01:42:56.088Z,46.35
2023-05-05T01:43:56.124Z,54.19
2023-05-05T01:44:56.606Z,47.01
2023-05-05T01:45:56.087Z,46.32
2023-05-05T01:46:56.073Z,57.72
2023-05-05T01:47:56.118Z,54.14
2023-05-05T01:48:56.054Z,46.35
2023-05-05T01:49:56.059Z,45.53
2023-05-05T01:50:56.035Z,45.21
2023-05-05T01:51:56.036Z,45.24
2023-05-05T01:52:56.023Z,45.17
2023-05-05T01:53:56.011Z,45.60
2023-05-05T01:54:56.021Z,46.21
2023-05-05T01:55:56.017Z,47.58
2023-05-05T01:56:55.985Z,47.07
2023-05-05T01:57:56.547Z,45.54
2023-05-05T01:58:55.983Z,46.10
2023-05-05T01:59:55.945Z,48.57
2023-05-05T02:00:56.025Z,47.13
2023-05-05T02:01:55.980Z,46.24
2023-05-05T02:02:55.987Z,51.76
2023-05-05T02:03:55.923Z,46.70
2023-05-05T02:04:55.909Z,50.81
2023-05-05T02:05:55.893Z,47.23
2023-05-05T02:06:55.946Z,45.43
2023-05-05T02:07:55.892Z,45.86
2023-05-05T02:08:55.970Z,45.67
2023-05-05T02:09:55.891Z,45.25
2023-05-05T02:10:55.872Z,45.50
2023-05-05T02:11:55.864Z,45.87
2023-05-05T02:12:55.925Z,46.14
2023-05-05T02:13:55.937Z,59.46
2023-05-05T02:14:55.842Z,53.19
2023-05-05T02:15:55.834Z,46.53
2023-05-05T02:16:55.804Z,45.40
2023-05-05T02:17:55.911Z,50.52
2023-05-05T02:18:55.818Z,45.55
2023-05-05T02:19:55.802Z,45.02
2023-05-05T02:20:55.849Z,45.24
2023-05-05T02:21:55.802Z,48.01
2023-05-05T02:22:56.077Z,48.20
2023-05-05T02:23:55.755Z,49.32
2023-05-05T02:24:55.767Z,49.49
2023-05-05T02:25:55.806Z,45.76
2023-05-05T02:26:55.745Z,47.75
2023-05-05T02:27:55.741Z,50.85
2023-05-05T02:28:55.739Z,50.85
2023-05-05T02:29:55.753Z,53.17
2023-05-05T02:30:55.715Z,53.11
2023-05-05T02:31:55.710Z,50.07
2023-05-05T02:32:55.743Z,51.64
2023-05-05T02:33:55.688Z,49.02
2023-05-05T02:34:56.727Z,46.35
2023-05-05T02:35:55.685Z,52.07
2023-05-05T02:36:55.704Z,50.71
2023-05-05T02:37:56.624Z,51.96
2023-05-05T02:38:55.655Z,54.72
2023-05-05T02:39:55.663Z,50.76
2023-05-05T02:40:55.693Z,51.50
2023-05-05T02:41:55.627Z,52.47
2023-05-05T02:42:55.698Z,57.62
2023-05-05T02:43:57.528Z,49.34
2023-05-05T02:44:55.615Z,53.57
2023-05-05T02:45:55.619Z,53.26
2023-05-05T02:46:55.678Z,48.04
2023-05-05T02:47:55.627Z,52.48
2023-05-05T02:48:55.595Z,48.29
2023-05-05T02:49:55.561Z,62.55
2023-05-05T02:50:55.549Z,49.78
2023-05-05T02:51:55.583Z,54.30
2023-05-05T02:52:55.568Z,54.44
2023-05-05T02:53:55.540Z,51.21
2023-05-05T02:54:55.526Z,57.04
2023-05-05T02:55:55.523Z,52.97
2023-05-05T02:56:55.544Z,53.63
2023-05-05T02:57:55.511Z,58.78
2023-05-05T02:58:55.503Z,62.20
2023-05-05T02:59:55.484Z,56.43
2023-05-05T03:00:55.472Z,60.58
2023-05-05T03:01:55.558Z,54.50
2023-05-05T03:02:55.556Z,51.82
2023-05-05T03:03:55.591Z,62.07
2023-05-05T03:04:55.452Z,57.95
2023-05-05T03:05:55.442Z,60.48
2023-05-05T03:06:55.442Z,57.23
2023-05-05T03:07:55.461Z,58.60
2023-05-05T03:08:55.452Z,59.67
2023-05-05T03:09:55.409Z,54.96
2023-05-05T03:10:55.407Z,53.68
2023-05-05T03:11:55.382Z,64.29
2023-05-05T03:12:55.433Z,62.51
2023-05-05T03:13:55.394Z,60.83
2023-05-05T03:14:55.422Z,63.39
2023-05-05T03:15:55.401Z,55.17
2023-05-05T03:16:55.380Z,53.77
2023-05-05T03:17:55.378Z,60.97
2023-05-05T03:18:55.355Z,59.71
2023-05-05T03:19:55.315Z,56.91
2023-05-05T03:20:55.376Z,58.75
2023-05-05T03:21:55.338Z,59.60
2023-05-05T03:22:55.301Z,59.75
2023-05-05T03:23:55.346Z,63.70
2023-05-05T03:24:55.282Z,61.34
2023-05-05T03:25:55.285Z,59.81
2023-05-05T03:26:55.271Z,65.82
2023-05-05T03:27:55.250Z,54.36
2023-05-05T03:28:55.308Z,61.35
2023-05-05T03:29:55.246Z,66.53
2023-05-05T03:30:55.236Z,59.79
2023-05-05T03:31:55.294Z,56.92
2023-05-05T03:32:55.319Z,61.36
2023-05-05T03:33:55.237Z,60.42
2023-05-05T03:34:55.231Z,67.62
2023-05-05T03:35:55.204Z,64.00
2023-05-05T03:36:55.223Z,62.27
2023-05-05T03:37:55.189Z,67.20
2023-05-05T03:38:55.202Z,64.12
2023-05-05T03:39:55.178Z,68.59
2023-05-05T03:40:55.221Z,62.67
2023-05-05T03:41:55.165Z,61.46
2023-05-05T03:42:55.144Z,64.21
2023-05-05T03:43:55.170Z,63.88
2023-05-05T03:44:55.129Z,68.21
2023-05-05T03:45:55.122Z,68.95
2023-05-05T03:46:55.106Z,60.76
2023-05-05T04:04:03.806Z,63.10
2023-05-05T04:05:03.805Z,63.80
2023-05-05T04:06:04.926Z,65.21
2023-05-05T04:07:04.905Z,64.81
2023-05-05T04:08:04.904Z,63.14
2023-05-05T04:09:04.903Z,60.69
2023-05-05T04:10:04.960Z,64.59
2023-05-05T04:11:04.872Z,70.60
2023-05-05T04:12:04.871Z,68.56
2023-05-05T04:13:04.911Z,59.35
2023-05-05T04:14:04.840Z,61.53
2023-05-05T04:15:04.839Z,63.01
2023-05-05T04:16:04.873Z,65.83
2023-05-05T04:17:04.852Z,60.57
2023-05-05T04:18:06.116Z,69.25
2023-05-05T04:19:04.808Z,65.74
2023-05-05T04:20:04.818Z,63.55
2023-05-05T04:21:04.828Z,65.68
2023-05-05T04:22:04.802Z,70.30
2023-05-05T04:23:04.757Z,58.25
2023-05-05T04:24:04.779Z,65.65
2023-05-05T04:25:04.818Z,65.82
2023-05-05T04:26:04.784Z,63.93
2023-05-05T04:27:04.732Z,66.93
2023-05-05T04:28:05.524Z,70.11
2023-05-05T04:29:04.772Z,65.30
2023-05-05T04:30:04.735Z,63.81
2023-05-05T04:31:04.817Z,69.90
2023-05-05T04:32:04.717Z,66.48
2023-05-05T04:33:04.712Z,59.93
2023-05-05T04:34:04.740Z,66.92
2023-05-05T04:35:04.692Z,64.06
2023-05-05T04:36:04.699Z,57.44
2023-05-05T04:37:04.690Z,65.87
2023-05-05T04:38:04.680Z,69.71
2023-05-05T04:39:04.709Z,64.71
2023-05-05T04:40:04.661Z,65.25
2023-05-05T04:41:04.661Z,69.60
2023-05-05T04:42:04.633Z,69.70
2023-05-05T04:43:04.631Z,67.19
2023-05-05T04:44:05.494Z,71.16
2023-05-05T04:45:04.653Z,67.22
2023-05-05T04:46:04.678Z,70.55
2023-05-05T04:47:04.635Z,71.27
2023-05-05T04:48:04.622Z,66.27
2023-05-05T04:49:04.618Z,65.26
2023-05-05T04:50:04.633Z,68.17
2023-05-05T04:51:04.648Z,65.36
2023-05-05T04:52:05.555Z,71.99
2023-05-05T04:53:05.529Z,66.71
2023-05-05T04:54:04.596Z,67.12
2023-05-05T04:55:04.593Z,64.93
2023-05-05T04:56:05.531Z,62.45
2023-05-05T04:57:05.530Z,61.68
2023-05-05T04:58:05.534Z,70.19
2023-05-05T04:59:04.525Z,59.90
2023-05-05T05:00:04.546Z,63.66
2023-05-05T05:01:04.487Z,70.64
2023-05-05T05:02:05.536Z,66.77
2023-05-05T05:03:04.534Z,70.07
2023-05-05T05:04:04.720Z,65.06
2023-05-05T05:05:04.513Z,69.37
2023-05-05T05:06:04.519Z,72.55
2023-05-05T05:07:36.395Z,67.42
2023-05-05T05:08:36.960Z,67.84
2023-05-05T05:12:08.795Z,72.62
2023-05-05T05:13:01.779Z,63.49
2023-05-05T05:14:01.765Z,69.45
2023-05-05T05:15:02.892Z,67.99
2023-05-05T05:16:02.898Z,69.59
2023-05-05T05:17:02.842Z,69.00
2023-05-05T05:18:02.868Z,68.73
2023-05-05T05:19:02.831Z,71.04
2023-05-05T05:20:02.823Z,63.97
2023-05-05T05:21:02.834Z,68.28
2023-05-05T05:22:02.817Z,69.33
2023-05-05T05:23:03.790Z,69.72
2023-05-05T05:24:02.808Z,69.42
2023-05-05T05:25:02.790Z,72.16
2023-05-05T05:26:02.792Z,67.45
2023-05-05T05:27:02.757Z,73.39
2023-05-05T05:28:10.117Z,70.90
2023-05-05T05:29:04.756Z,70.79
2023-05-05T05:30:02.736Z,70.05
2023-05-05T05:31:02.717Z,70.26
2023-05-05T05:32:02.743Z,67.94
2023-05-05T05:33:02.716Z,71.17
2023-05-05T05:34:02.798Z,68.59
2023-05-05T05:35:02.718Z,69.84
2023-05-05T05:36:02.687Z,70.77
2023-05-05T05:37:02.687Z,69.11
2023-05-05T05:38:02.682Z,67.87
2023-05-05T05:39:02.876Z,68.57
2023-05-05T05:40:02.658Z,70.65
2023-05-05T05:41:02.661Z,67.58
2023-05-05T05:42:02.662Z,67.11
2023-05-05T05:43:02.629Z,72.37
2023-05-05T05:44:02.634Z,68.38
2023-05-05T05:45:02.647Z,69.76
2023-05-05T05:46:02.636Z,67.41
2023-05-05T05:47:02.607Z,67.78
2023-05-05T05:48:02.658Z,68.49
2023-05-05T05:49:02.630Z,67.04
2023-05-05T05:50:02.610Z,68.79
2023-05-05T05:51:02.593Z,67.31
2023-05-05T05:52:02.554Z,68.42
2023-05-05T05:53:02.551Z,67.19
2023-05-05T05:54:02.582Z,71.56
2023-05-05T05:55:02.587Z,69.92
2023-05-05T05:56:04.416Z,69.08
2023-05-05T05:57:02.574Z,67.24
2023-05-05T05:58:02.525Z,70.13
2023-05-05T05:59:02.506Z,66.17
2023-05-05T06:00:02.629Z,67.20
2023-05-05T06:01:02.516Z,68.09
2023-05-05T06:02:02.530Z,61.55
2023-05-05T06:03:02.600Z,70.24
2023-05-05T06:04:02.517Z,60.88
2023-05-05T06:05:02.474Z,68.79
2023-05-05T06:06:02.512Z,66.53
2023-05-05T06:07:02.469Z,62.85
2023-05-05T06:08:02.478Z,64.44
2023-05-05T06:09:02.451Z,64.34
2023-05-05T06:10:14.445Z,68.89
2023-05-05T06:11:04.472Z,68.98
2023-05-05T06:12:02.476Z,67.31
2023-05-05T06:13:02.525Z,67.81
2023-05-05T06:14:02.425Z,67.13
2023-05-05T06:15:02.417Z,67.33
2023-05-05T06:16:02.465Z,68.36
2023-05-05T06:17:02.428Z,65.04
2023-05-05T06:18:02.420Z,61.23
2023-05-05T06:19:02.419Z,62.96
2023-05-05T06:20:02.391Z,64.03
2023-05-05T06:21:02.383Z,66.34
2023-05-05T06:22:02.380Z,60.41
2023-05-05T06:23:02.352Z,68.32
2023-05-05T06:24:02.360Z,67.71
2023-05-05T06:25:02.357Z,65.59
2023-05-05T06:26:02.413Z,64.31
2023-05-05T06:27:02.320Z,65.90
2023-05-05T06:28:02.302Z,66.93
2023-05-05T06:29:02.328Z,64.79
2023-05-05T06:30:02.318Z,67.11
2023-05-05T06:31:02.327Z,59.73
2023-05-05T06:32:02.299Z,66.07
2023-05-05T06:33:02.355Z,64.96
2023-05-05T06:34:02.307Z,60.83
2023-05-05T06:35:02.245Z,64.69
2023-05-05T06:36:02.238Z,62.58
2023-05-05T06:37:02.285Z,63.55
2023-05-05T06:38:02.266Z,69.64
2023-05-05T06:39:02.253Z,69.42
2023-05-05T06:40:02.253Z,65.50
2023-05-05T06:41:02.215Z,67.06
2023-05-05T06:42:02.222Z,63.30
2023-05-05T06:43:02.183Z,67.04
2023-05-05T06:44:02.256Z,69.11
2023-05-05T06:45:02.222Z,69.68
2023-05-05T06:46:02.179Z,67.10
2023-05-05T06:47:02.263Z,65.15
2023-05-05T06:48:02.234Z,61.91
2023-05-05T06:49:02.175Z,67.30
2023-05-05T06:50:02.405Z,64.60
2023-05-05T06:51:03.802Z,68.52
2023-05-05T06:52:02.129Z,64.31
2023-05-05T06:53:02.143Z,66.64
2023-05-05T06:54:03.603Z,65.85
2023-05-05T06:55:02.158Z,64.79
2023-05-05T06:56:02.981Z,66.34
2023-05-05T06:57:02.088Z,66.69
2023-05-05T06:58:02.155Z,64.43
2023-05-05T06:59:02.068Z,64.97
2023-05-05T07:00:02.113Z,66.85
2023-05-05T07:01:03.026Z,65.99
2023-05-05T07:02:02.979Z,63.75
2023-05-05T07:03:02.162Z,64.17
2023-05-05T07:04:02.111Z,64.85
2023-05-05T07:05:02.025Z,64.72
2023-05-05T07:06:02.045Z,67.93
2023-05-05T07:07:02.029Z,64.74
2023-05-05T07:08:02.048Z,63.69
2023-05-05T07:09:02.014Z,65.65
2023-05-05T07:10:02.003Z,67.00
2023-05-05T07:11:02.062Z,66.72
2023-05-05T07:12:02.010Z,62.87
2023-05-05T07:13:02.063Z,65.70
2023-05-05T07:14:02.084Z,62.31
2023-05-05T07:15:12.227Z,66.00
2023-05-05T07:16:03.938Z,66.64
2023-05-05T07:17:02.145Z,67.93
2023-05-05T07:18:02.280Z,63.35
2023-05-05T07:19:01.910Z,66.35
2023-05-05T07:20:01.916Z,67.60
2023-05-05T07:21:02.498Z,65.72
2023-05-05T07:22:01.889Z,62.01
2023-05-05T07:23:01.946Z,63.12
2023-05-05T07:24:01.941Z,62.84
2023-05-05T07:25:01.875Z,69.70
2023-05-05T07:26:01.872Z,67.25
2023-05-05T07:27:01.892Z,67.12
2023-05-05T07:28:02.008Z,65.75
2023-05-05T07:29:01.855Z,63.44
2023-05-05T07:30:03.290Z,60.78
2023-05-05T07:31:01.832Z,66.48
2023-05-05T07:32:01.863Z,54.68
2023-05-05T07:33:01.856Z,62.96
2023-05-05T07:34:01.877Z,66.45
2023-05-05T07:35:01.831Z,68.14
2023-05-05T07:36:01.818Z,69.38
2023-05-05T07:37:01.823Z,61.47
2023-05-05T07:38:01.793Z,62.76
2023-05-05T07:39:01.799Z,60.94
2023-05-05T07:40:01.774Z,68.52
2023-05-05T07:41:01.765Z,66.59
2023-05-05T07:42:02.527Z,62.25
2023-05-05T07:43:01.760Z,65.35
2023-05-05T07:44:01.769Z,66.96
2023-05-05T07:45:02.542Z,68.09
2023-05-05T07:46:01.845Z,65.20
2023-05-05T07:47:01.728Z,64.19
2023-05-05T07:48:01.809Z,63.67
2023-05-05T07:49:01.721Z,65.03
2023-05-05T07:50:01.780Z,68.87
2023-05-05T07:51:01.684Z,64.36
2023-05-05T07:52:01.767Z,67.36
2023-05-05T07:53:10.733Z,62.99
2023-05-05T07:54:03.691Z,65.74
2023-05-05T07:55:01.678Z,51.72
2023-05-05T07:56:01.702Z,65.11
2023-05-05T07:57:01.696Z,66.31
2023-05-05T07:58:01.676Z,64.00
2023-05-05T07:59:01.628Z,60.75
2023-05-05T08:00:01.652Z,66.15
2023-05-05T08:01:01.712Z,63.48
2023-05-05T08:02:01.782Z,64.90
2023-05-05T08:03:01.741Z,62.05
2023-05-05T08:04:01.709Z,62.36
2023-05-05T08:05:01.625Z,65.87
2023-05-05T08:06:01.599Z,66.10
2023-05-05T08:07:01.720Z,63.34
2023-05-05T08:08:01.589Z,64.60
2023-05-05T08:09:01.600Z,62.08
2023-05-05T08:10:01.644Z,65.60
2023-05-05T08:11:01.564Z,62.22
2023-05-05T08:12:01.660Z,64.75
2023-05-05T08:13:01.635Z,65.06
2023-05-05T08:14:01.557Z,60.94
2023-05-05T08:15:01.537Z,63.45
2023-05-05T08:16:01.554Z,66.00
2023-05-05T08:17:01.538Z,64.21
2023-05-05T08:18:01.579Z,64.68
2023-05-05T08:19:02.428Z,65.52
2023-05-05T08:20:01.525Z,64.91
2023-05-05T08:21:01.569Z,66.16
2023-05-05T08:22:01.655Z,65.21
2023-05-05T08:23:01.485Z,64.58
2023-05-05T08:24:01.479Z,65.39
2023-05-05T08:25:01.457Z,65.65
2023-05-05T08:26:02.024Z,60.73
2023-05-05T08:27:01.486Z,58.74
2023-05-05T08:28:01.445Z,63.09
2023-05-05T08:29:01.410Z,69.14
2023-05-05T08:30:02.010Z,65.20
2023-05-05T08:31:01.452Z,63.57
2023-05-05T08:32:01.441Z,61.66
2023-05-05T08:33:01.477Z,64.71
2023-05-05T08:34:01.496Z,61.86
2023-05-05T08:35:01.389Z,68.33
2023-05-05T08:36:01.392Z,67.94
2023-05-05T08:37:01.364Z,59.59
2023-05-05T08:38:01.383Z,62.59
2023-05-05T08:39:01.449Z,67.88
2023-05-05T08:40:01.369Z,59.48
2023-05-05T08:41:01.375Z,58.37
2023-05-05T08:42:01.325Z,62.20
2023-05-05T08:43:01.392Z,66.76
2023-05-05T08:44:01.322Z,66.70
2023-05-05T08:45:01.341Z,61.62
2023-05-05T08:46:01.292Z,67.28
2023-05-05T08:47:01.507Z,64.93
2023-05-05T08:48:01.370Z,64.61
2023-05-05T08:49:01.311Z,67.09
2023-05-05T08:50:01.380Z,65.62
2023-05-05T08:51:03.321Z,66.07
2023-05-05T08:52:01.256Z,56.62
2023-05-05T08:53:01.313Z,63.97
2023-05-05T08:54:01.267Z,67.74
2023-05-05T08:55:01.330Z,65.71
2023-05-05T08:56:01.240Z,63.85
2023-05-05T08:57:02.070Z,60.39
2023-05-05T08:58:01.197Z,67.65
2023-05-05T08:59:01.261Z,61.23
2023-05-05T09:00:01.189Z,67.60
2023-05-05T09:01:01.245Z,63.02
2023-05-05T09:02:01.242Z,65.76
2023-05-05T09:03:02.057Z,62.85
2023-05-05T09:04:01.218Z,62.25
2023-05-05T09:05:01.227Z,69.08
2023-05-05T09:06:01.283Z,67.35
2023-05-05T09:07:01.157Z,55.55
2023-05-05T09:08:01.160Z,65.20
2023-05-05T09:09:34.123Z,61.56
2023-05-05T09:10:01.238Z,66.43
2023-05-05T09:11:02.137Z,66.96
2023-05-05T09:12:34.172Z,64.66
2023-05-05T09:13:01.142Z,62.97
2023-05-05T09:14:01.084Z,58.82
2023-05-05T09:15:01.116Z,67.22
2023-05-05T09:16:01.148Z,68.57
2023-05-05T09:17:01.670Z,62.02
2023-05-05T09:18:01.106Z,60.58
2023-05-05T09:19:01.054Z,66.40
2023-05-05T09:20:01.067Z,66.02
2023-05-05T09:21:01.082Z,65.25
2023-05-05T09:22:01.145Z,58.92
2023-05-05T09:23:01.042Z,68.42
2023-05-05T09:24:07.404Z,58.84
2023-05-05T09:25:03.005Z,60.00
2023-05-05T09:26:01.026Z,62.69
2023-05-05T09:27:01.001Z,64.51
2023-05-05T09:28:02.007Z,65.83
2023-05-05T09:29:01.956Z,61.83
2023-05-05T09:30:00.993Z,61.42
2023-05-05T09:31:02.015Z,67.58
2023-05-05T09:32:01.000Z,57.82
2023-05-05T09:33:00.989Z,69.42
2023-05-05T09:34:00.980Z,60.91
2023-05-05T09:35:00.939Z,64.31
2023-05-05T09:36:00.958Z,65.13
2023-05-05T09:37:00.981Z,66.03
2023-05-05T09:38:01.000Z,63.39
2023-05-05T09:39:00.941Z,65.14
2023-05-05T09:40:00.936Z,58.24
2023-05-05T09:41:01.025Z,67.42
2023-05-05T09:42:00.935Z,62.25
2023-05-05T09:43:00.916Z,64.96
2023-05-05T09:44:00.906Z,67.49
2023-05-05T09:45:00.877Z,64.79
2023-05-05T09:46:01.014Z,63.52
2023-05-05T09:47:00.853Z,65.90
2023-05-05T09:48:01.016Z,63.23
2023-05-05T09:49:00.888Z,67.03
2023-05-05T09:50:00.889Z,63.35
2023-05-05T09:51:00.831Z,64.97
2023-05-05T09:52:00.852Z,63.78
2023-05-05T09:53:00.879Z,63.84
2023-05-05T09:54:00.930Z,65.88
2023-05-05T09:55:00.806Z,61.69
2023-05-05T09:56:01.593Z,66.52
2023-05-05T09:57:00.819Z,57.62
2023-05-05T09:58:00.800Z,58.97
2023-05-05T09:59:00.877Z,66.53
2023-05-05T10:00:00.800Z,68.64
2023-05-05T10:01:00.769Z,64.08
2023-05-05T10:02:00.855Z,63.13
2023-05-05T10:03:00.776Z,64.17
2023-05-05T10:04:00.761Z,61.27
2023-05-05T10:05:02.298Z,67.17
2023-05-05T10:06:01.743Z,62.21
2023-05-05T10:07:00.742Z,61.72
2023-05-05T10:08:00.729Z,64.59
2023-05-05T10:09:00.699Z,65.63
2023-05-05T10:10:00.766Z,66.33
2023-05-05T10:11:02.193Z,64.35
2023-05-05T10:12:00.682Z,66.09
2023-05-05T10:13:00.714Z,64.12
2023-05-05T10:14:00.684Z,57.13
2023-05-05T10:15:00.652Z,67.37
2023-05-05T10:16:00.708Z,59.83
2023-05-05T10:17:00.696Z,63.53
2023-05-05T10:18:07.487Z,64.24
2023-05-05T10:19:02.673Z,66.31
2023-05-05T10:20:01.690Z,65.11
2023-05-05T10:21:00.612Z,66.76
2023-05-05T10:22:01.622Z,58.44
2023-05-05T10:23:00.602Z,66.41
2023-05-05T10:24:00.618Z,65.05
2023-05-05T10:25:00.601Z,63.89
2023-05-05T10:26:00.792Z,65.66
2023-05-05T10:27:00.604Z,65.94
2023-05-05T10:28:00.565Z,64.90
2023-05-05T10:29:00.555Z,64.37
2023-05-05T10:30:00.665Z,63.69
2023-05-05T10:31:00.553Z,63.90
2023-05-05T10:32:00.598Z,67.52
2023-05-05T10:33:18.226Z,67.53
2023-05-05T10:34:02.643Z,66.22
2023-05-05T10:35:00.535Z,64.49
2023-05-05T10:36:00.512Z,61.37
2023-05-05T10:37:01.461Z,65.06
2023-05-05T10:38:01.483Z,67.25
2023-05-05T10:39:00.591Z,64.55
2023-05-05T10:40:00.506Z,64.72
2023-05-05T10:41:00.505Z,62.61
2023-05-05T10:42:00.678Z,60.46
2023-05-05T10:43:00.483Z,62.94
2023-05-05T10:44:02.835Z,65.55
2023-05-05T10:45:00.491Z,62.75
2023-05-05T10:46:00.594Z,64.89
2023-05-05T10:47:00.468Z,65.13
2023-05-05T10:48:00.497Z,62.94
2023-05-05T10:49:00.538Z,66.33
2023-05-05T10:50:00.443Z,64.46
2023-05-05T10:51:00.485Z,68.26
2023-05-05T10:52:00.467Z,65.71
2023-05-05T10:53:00.406Z,67.48
2023-05-05T10:54:00.423Z,63.49
2023-05-05T10:55:00.410Z,63.40
2023-05-05T10:56:00.371Z,65.06
2023-05-05T10:57:00.408Z,65.08
2023-05-05T10:58:00.451Z,66.29
2023-05-05T10:59:00.966Z,63.96
2023-05-05T11:00:01.386Z,66.08
2023-05-05T11:01:00.380Z,66.66
2023-05-05T11:02:00.319Z,63.18
2023-05-05T11:03:00.455Z,65.88
2023-05-05T11:04:01.131Z,62.64
2023-05-05T11:05:00.348Z,63.83
2023-05-05T11:06:00.313Z,64.56
2023-05-05T11:07:00.307Z,67.52
2023-05-05T11:08:00.316Z,67.68
2023-05-05T11:09:00.288Z,66.16
2023-05-05T11:10:00.326Z,65.70
2023-05-05T11:11:00.327Z,63.66
2023-05-05T11:12:00.259Z,67.12
2023-05-05T11:13:00.346Z,67.25
2023-05-05T11:14:00.361Z,63.29
2023-05-05T11:15:01.473Z,64.46
2023-05-05T11:16:00.241Z,64.03
2023-05-05T11:17:00.276Z,66.24
2023-05-05T11:18:00.272Z,66.27
2023-05-05T11:19:00.229Z,64.30
2023-05-05T11:20:00.309Z,55.37
2023-05-05T11:21:00.232Z,62.11
2023-05-05T11:22:00.196Z,60.62
2023-05-05T11:23:00.233Z,65.50
2023-05-05T11:24:00.211Z,64.58
2023-05-05T11:25:01.185Z,70.18
2023-05-05T11:26:01.979Z,64.98
2023-05-05T11:27:00.188Z,65.74
2023-05-05T11:28:00.253Z,65.17
2023-05-05T11:29:01.186Z,62.56
2023-05-05T11:30:00.236Z,68.44
2023-05-05T11:31:00.184Z,60.71
2023-05-05T11:32:00.139Z,68.14
2023-05-05T11:33:00.162Z,67.47
2023-05-05T11:34:00.145Z,63.52
2023-05-05T11:35:00.136Z,68.36
2023-05-05T11:36:02.265Z,64.84
2023-05-05T11:37:00.118Z,64.17
2023-05-05T11:38:00.073Z,67.25
2023-05-05T11:39:00.098Z,66.67
2023-05-05T11:40:00.101Z,65.01
2023-05-05T11:41:00.130Z,67.46
2023-05-05T11:42:00.073Z,66.15
2023-05-05T11:43:00.041Z,66.92
2023-05-05T11:44:00.066Z,65.77
2023-05-05T11:45:00.056Z,64.39
2023-05-05T11:46:00.154Z,67.32
2023-05-05T11:47:00.721Z,64.24
2023-05-05T11:48:00.083Z,63.94
2023-05-05T11:49:00.014Z,65.06
2023-05-05T11:50:00.057Z,67.10
2023-05-05T11:50:59.964Z,65.42
2023-05-05T11:52:00.008Z,62.82
2023-05-05T11:52:59.970Z,60.62
2023-05-05T11:53:59.974Z,67.62
2023-05-05T11:54:59.963Z,65.33
2023-05-05T11:55:59.965Z,65.31
2023-05-05T11:56:59.967Z,65.39
2023-05-05T11:57:59.929Z,64.92
2023-05-05T11:58:59.950Z,66.03
2023-05-05T11:59:59.944Z,65.56
2023-05-05T12:00:59.920Z,62.82
2023-05-05T12:01:59.941Z,67.64
2023-05-05T12:03:00.024Z,63.55
2023-05-05T12:03:59.994Z,64.92
2023-05-05T12:04:59.960Z,70.09
2023-05-05T12:05:59.880Z,64.02
2023-05-05T12:06:59.902Z,67.01
2023-05-05T12:07:59.958Z,66.28
2023-05-05T12:08:59.866Z,61.58
2023-05-05T12:09:59.861Z,61.98
2023-05-05T12:10:59.853Z,65.80
2023-05-05T12:11:59.866Z,66.13
2023-05-05T12:12:59.904Z,62.46
2023-05-05T12:13:59.826Z,63.30
2023-05-05T12:14:59.844Z,63.82
2023-05-05T12:15:59.833Z,59.67
2023-05-05T12:16:59.801Z,63.59
2023-05-05T12:18:02.124Z,62.03
2023-05-05T12:18:59.809Z,65.05
2023-05-05T12:19:59.779Z,66.38
2023-05-05T12:20:59.803Z,62.56
2023-05-05T12:21:59.798Z,66.08
2023-05-05T12:22:59.810Z,65.10
2023-05-05T12:24:00.587Z,65.28
2023-05-05T12:24:59.748Z,67.59
2023-05-05T12:25:59.773Z,66.12
2023-05-05T12:26:59.737Z,65.32
2023-05-05T12:27:59.798Z,68.98
2023-05-05T12:28:59.759Z,66.05
2023-05-05T12:29:59.757Z,62.35
2023-05-05T12:30:59.805Z,66.11
2023-05-05T12:31:59.756Z,64.55
2023-05-05T12:32:59.793Z,68.15
2023-05-05T12:33:59.758Z,67.69
2023-05-05T12:34:59.733Z,66.09
2023-05-05T12:35:59.720Z,64.91
2023-05-05T12:36:59.706Z,64.45
2023-05-05T12:37:59.770Z,66.37
2023-05-05T12:38:59.687Z,67.11
2023-05-05T12:39:59.684Z,65.24
2023-05-05T12:40:59.671Z,60.55
2023-05-05T12:41:59.652Z,60.33
2023-05-05T12:42:59.650Z,67.00
2023-05-05T12:43:59.623Z,65.64
2023-05-05T12:44:59.728Z,65.72
2023-05-05T12:45:59.673Z,65.09
2023-05-05T12:46:59.614Z,66.61
2023-05-05T12:47:59.657Z,65.77
2023-05-05T12:48:59.593Z,64.44
2023-05-05T12:49:59.675Z,65.85
2023-05-05T12:51:00.170Z,64.54
2023-05-05T12:51:59.618Z,66.08
2023-05-05T12:52:59.582Z,60.94
2023-05-05T12:53:59.580Z,66.98
2023-05-05T12:54:59.598Z,66.55
2023-05-05T12:55:59.584Z,64.74
2023-05-05T12:56:59.579Z,64.61
2023-05-05T12:58:00.251Z,66.31
2023-05-05T12:58:59.556Z,62.55
2023-05-05T12:59:59.516Z,68.87
2023-05-05T13:00:59.616Z,69.38
2023-05-05T13:01:59.839Z,68.82
2023-05-05T13:02:59.608Z,66.09
2023-05-05T13:04:00.210Z,66.71
2023-05-05T13:04:59.502Z,66.61
2023-05-05T13:05:59.499Z,67.46
2023-05-05T13:06:59.773Z,62.68
2023-05-05T13:07:59.510Z,66.79
2023-05-05T13:09:00.024Z,67.69
2023-05-05T13:10:00.481Z,70.09
2023-05-05T13:10:59.490Z,63.60
2023-05-05T13:11:59.495Z,65.62